sensor_id;sensor_type;location;lat;lon;timestamp;P1;durP1;ratioP1;P2;durP2;ratioP2
69417;SDS011;56610;48.872;2.400;2023-05-07T00:02:24;2.22;;;1.05;;
69417;SDS011;56610;48.872;2.400;2023-05-07T00:04:50;3.78;;;1.55;;
69417;SDS011;56610;48.872;2.400;2023-05-07T00:07:16;2.65;;;1.30;;
69417;SDS011;56610;48.872;2.400;2023-05-07T00:09:42;4.50;;;1.30;;
69417;SDS011;56610;48.872;2.400;2023-05-07T00:12:08;2.03;;;1.48;;
69417;SDS011;56610;48.872;2.400;2023-05-07T00:14:34;2.00;;;0.98;;
69417;SDS011;56610;48.872;2.400;2023-05-07T00:16:59;2.50;;;1.50;;
69417;SDS011;56610;48.872;2.400;2023-05-07T00:19:25;2.78;;;1.73;;
69417;SDS011;56610;48.872;2.400;2023-05-07T00:21:50;2.55;;;1.55;;
69417;SDS011;56610;48.872;2.400;2023-05-07T00:24:18;1.95;;;1.40;;
69417;SDS011;56610;48.872;2.400;2023-05-07T00:26:44;2.97;;;1.40;;
69417;SDS011;56610;48.872;2.400;2023-05-07T00:29:09;2.80;;;1.40;;
69417;SDS011;56610;48.872;2.400;2023-05-07T00:31:35;1.80;;;1.20;;
69417;SDS011;56610;48.872;2.400;2023-05-07T00:34:00;2.47;;;1.30;;
69417;SDS011;56610;48.872;2.400;2023-05-07T00:36:27;1.90;;;1.30;;
69417;SDS011;56610;48.872;2.400;2023-05-07T00:38:53;1.63;;;1.50;;
69417;SDS011;56610;48.872;2.400;2023-05-07T00:41:20;7.60;;;1.43;;
69417;SDS011;56610;48.872;2.400;2023-05-07T00:43:46;1.98;;;1.50;;
69417;SDS011;56610;48.872;2.400;2023-05-07T00:46:12;1.23;;;1.08;;
69417;SDS011;56610;48.872;2.400;2023-05-07T00:48:38;1.70;;;1.10;;
69417;SDS011;56610;48.872;2.400;2023-05-07T00:51:04;1.10;;;0.82;;
69417;SDS011;56610;48.872;2.400;2023-05-07T00:53:29;1.13;;;0.90;;
69417;SDS011;56610;48.872;2.400;2023-05-07T00:55:55;0.88;;;0.70;;
69417;SDS011;56610;48.872;2.400;2023-05-07T00:58:21;1.10;;;0.80;;
69417;SDS011;56610;48.872;2.400;2023-05-07T01:00:47;1.13;;;0.70;;
69417;SDS011;56610;48.872;2.400;2023-05-07T01:05:58;2.65;;;1.10;;
69417;SDS011;56610;48.872;2.400;2023-05-07T01:08:25;0.93;;;0.82;;
69417;SDS011;56610;48.872;2.400;2023-05-07T01:10:54;1.77;;;0.95;;
69417;SDS011;56610;48.872;2.400;2023-05-07T01:13:22;1.60;;;0.73;;
69417;SDS011;56610;48.872;2.400;2023-05-07T01:15:49;2.63;;;0.80;;
69417;SDS011;56610;48.872;2.400;2023-05-07T01:18:14;1.55;;;0.63;;
69417;SDS011;56610;48.872;2.400;2023-05-07T01:20:40;0.90;;;0.60;;
69417;SDS011;56610;48.872;2.400;2023-05-07T01:23:06;1.33;;;0.93;;
69417;SDS011;56610;48.872;2.400;2023-05-07T01:25:32;1.08;;;0.90;;
69417;SDS011;56610;48.872;2.400;2023-05-07T01:27:58;0.93;;;0.82;;
69417;SDS011;56610;48.872;2.400;2023-05-07T01:30:27;1.50;;;0.88;;
69417;SDS011;56610;48.872;2.400;2023-05-07T01:32:57;2.15;;;1.15;;
69417;SDS011;56610;48.872;2.400;2023-05-07T01:35:37;2.05;;;1.38;;
69417;SDS011;56610;48.872;2.400;2023-05-07T01:38:06;0.98;;;0.93;;
69417;SDS011;56610;48.872;2.400;2023-05-07T01:40:33;1.60;;;1.00;;
69417;SDS011;56610;48.872;2.400;2023-05-07T01:43:00;1.63;;;1.30;;
69417;SDS011;56610;48.872;2.400;2023-05-07T01:45:27;2.10;;;1.10;;
69417;SDS011;56610;48.872;2.400;2023-05-07T01:47:53;1.63;;;0.95;;
69417;SDS011;56610;48.872;2.400;2023-05-07T01:50:20;1.45;;;1.02;;
69417;SDS011;56610;48.872;2.400;2023-05-07T01:52:46;2.40;;;0.93;;
69417;SDS011;56610;48.872;2.400;2023-05-07T01:55:14;1.63;;;1.00;;
69417;SDS011;56610;48.872;2.400;2023-05-07T01:57:39;3.30;;;1.25;;
69417;SDS011;56610;48.872;2.400;2023-05-07T02:00:06;1.60;;;0.77;;
69417;SDS011;56610;48.872;2.400;2023-05-07T02:02:33;1.50;;;1.00;;
69417;SDS011;56610;48.872;2.400;2023-05-07T02:04:59;1.13;;;0.80;;
69417;SDS011;56610;48.872;2.400;2023-05-07T02:07:26;1.73;;;1.10;;
69417;SDS011;56610;48.872;2.400;2023-05-07T02:09:51;2.55;;;1.30;;
69417;SDS011;56610;48.872;2.400;2023-05-07T02:12:17;1.20;;;0.88;;
69417;SDS011;56610;48.872;2.400;2023-05-07T02:14:42;1.50;;;1.25;;
69417;SDS011;56610;48.872;2.400;2023-05-07T02:17:08;2.50;;;1.35;;
69417;SDS011;56610;48.872;2.400;2023-05-07T02:19:33;2.75;;;1.60;;
69417;SDS011;56610;48.872;2.400;2023-05-07T02:22:00;1.17;;;0.95;;
69417;SDS011;56610;48.872;2.400;2023-05-07T02:24:25;1.90;;;1.30;;
69417;SDS011;56610;48.872;2.400;2023-05-07T02:26:51;2.30;;;1.35;;
69417;SDS011;56610;48.872;2.400;2023-05-07T02:29:16;2.63;;;1.27;;
69417;SDS011;56610;48.872;2.400;2023-05-07T02:31:42;2.70;;;1.10;;
69417;SDS011;56610;48.872;2.400;2023-05-07T02:34:07;1.55;;;1.10;;
69417;SDS011;56610;48.872;2.400;2023-05-07T02:36:33;2.60;;;0.95;;
69417;SDS011;56610;48.872;2.400;2023-05-07T02:38:58;1.83;;;1.15;;
69417;SDS011;56610;48.872;2.400;2023-05-07T02:41:24;1.55;;;1.00;;
69417;SDS011;56610;48.872;2.400;2023-05-07T02:43:50;1.40;;;1.05;;
69417;SDS011;56610;48.872;2.400;2023-05-07T02:46:15;1.35;;;0.90;;
69417;SDS011;56610;48.872;2.400;2023-05-07T02:48:41;1.67;;;1.42;;
69417;SDS011;56610;48.872;2.400;2023-05-07T02:51:06;2.65;;;1.40;;
69417;SDS011;56610;48.872;2.400;2023-05-07T02:53:32;1.48;;;1.17;;
69417;SDS011;56610;48.872;2.400;2023-05-07T02:55:58;2.35;;;1.20;;
69417;SDS011;56610;48.872;2.400;2023-05-07T02:58:25;2.33;;;1.30;;
69417;SDS011;56610;48.872;2.400;2023-05-07T03:00:51;2.72;;;1.42;;
69417;SDS011;56610;48.872;2.400;2023-05-07T03:03:17;2.60;;;1.10;;
69417;SDS011;56610;48.872;2.400;2023-05-07T03:05:42;0.82;;;0.80;;
69417;SDS011;56610;48.872;2.400;2023-05-07T03:08:08;1.02;;;0.60;;
69417;SDS011;56610;48.872;2.400;2023-05-07T03:10:35;2.42;;;0.77;;
69417;SDS011;56610;48.872;2.400;2023-05-07T03:13:01;3.65;;;1.17;;
69417;SDS011;56610;48.872;2.400;2023-05-07T03:15:27;1.98;;;1.00;;
69417;SDS011;56610;48.872;2.400;2023-05-07T03:17:54;1.70;;;0.70;;
69417;SDS011;56610;48.872;2.400;2023-05-07T03:20:19;1.88;;;1.20;;
69417;SDS011;56610;48.872;2.400;2023-05-07T03:22:45;1.52;;;1.00;;
69417;SDS011;56610;48.872;2.400;2023-05-07T03:25:10;2.15;;;1.20;;
69417;SDS011;56610;48.872;2.400;2023-05-07T03:27:37;1.90;;;1.20;;
69417;SDS011;56610;48.872;2.400;2023-05-07T03:30:03;1.95;;;1.30;;
69417;SDS011;56610;48.872;2.400;2023-05-07T03:32:29;3.13;;;1.30;;
69417;SDS011;56610;48.872;2.400;2023-05-07T03:34:54;2.33;;;1.13;;
69417;SDS011;56610;48.872;2.400;2023-05-07T03:37:20;2.78;;;1.30;;
69417;SDS011;56610;48.872;2.400;2023-05-07T03:39:46;1.88;;;1.13;;
69417;SDS011;56610;48.872;2.400;2023-05-07T03:42:12;3.30;;;1.42;;
69417;SDS011;56610;48.872;2.400;2023-05-07T03:44:38;3.28;;;1.30;;
69417;SDS011;56610;48.872;2.400;2023-05-07T03:47:03;1.83;;;1.30;;
69417;SDS011;56610;48.872;2.400;2023-05-07T03:49:29;3.78;;;1.80;;
69417;SDS011;56610;48.872;2.400;2023-05-07T03:51:54;2.47;;;1.80;;
69417;SDS011;56610;48.872;2.400;2023-05-07T03:54:20;3.17;;;1.52;;
69417;SDS011;56610;48.872;2.400;2023-05-07T03:56:46;2.58;;;1.45;;
69417;SDS011;56610;48.872;2.400;2023-05-07T03:59:12;2.28;;;2.05;;
69417;SDS011;56610;48.872;2.400;2023-05-07T04:01:38;2.53;;;1.90;;
69417;SDS011;56610;48.872;2.400;2023-05-07T04:04:03;4.20;;;2.60;;
69417;SDS011;56610;48.872;2.400;2023-05-07T04:06:29;2.22;;;2.00;;
69417;SDS011;56610;48.872;2.400;2023-05-07T04:08:55;3.40;;;2.80;;
69417;SDS011;56610;48.872;2.400;2023-05-07T04:11:21;2.97;;;1.95;;
69417;SDS011;56610;48.872;2.400;2023-05-07T04:13:47;2.72;;;1.92;;
69417;SDS011;56610;48.872;2.400;2023-05-07T04:16:12;2.45;;;1.40;;
69417;SDS011;56610;48.872;2.400;2023-05-07T04:18:38;1.75;;;1.33;;
69417;SDS011;56610;48.872;2.400;2023-05-07T04:21:04;1.30;;;1.20;;
69417;SDS011;56610;48.872;2.400;2023-05-07T04:23:29;2.22;;;1.33;;
69417;SDS011;56610;48.872;2.400;2023-05-07T04:25:55;1.52;;;1.33;;
69417;SDS011;56610;48.872;2.400;2023-05-07T04:28:22;2.15;;;1.65;;
69417;SDS011;56610;48.872;2.400;2023-05-07T04:30:48;1.45;;;1.33;;
69417;SDS011;56610;48.872;2.400;2023-05-07T04:33:14;2.47;;;1.40;;
69417;SDS011;56610;48.872;2.400;2023-05-07T04:35:41;1.73;;;1.60;;
69417;SDS011;56610;48.872;2.400;2023-05-07T04:38:07;1.70;;;1.48;;
69417;SDS011;56610;48.872;2.400;2023-05-07T04:40:33;2.53;;;1.80;;
69417;SDS011;56610;48.872;2.400;2023-05-07T04:43:00;2.70;;;1.92;;
69417;SDS011;56610;48.872;2.400;2023-05-07T04:45:26;1.73;;;1.10;;
69417;SDS011;56610;48.872;2.400;2023-05-07T04:47:51;1.50;;;0.90;;
69417;SDS011;56610;48.872;2.400;2023-05-07T04:50:17;2.33;;;1.20;;
69417;SDS011;56610;48.872;2.400;2023-05-07T04:52:44;3.33;;;1.38;;
69417;SDS011;56610;48.872;2.400;2023-05-07T04:55:10;1.38;;;1.23;;
69417;SDS011;56610;48.872;2.400;2023-05-07T04:57:36;2.35;;;1.58;;
69417;SDS011;56610;48.872;2.400;2023-05-07T05:00:02;1.83;;;1.60;;
69417;SDS011;56610;48.872;2.400;2023-05-07T05:02:29;1.90;;;1.30;;
69417;SDS011;56610;48.872;2.400;2023-05-07T05:04:54;1.60;;;1.27;;
69417;SDS011;56610;48.872;2.400;2023-05-07T05:07:20;2.35;;;1.25;;
69417;SDS011;56610;48.872;2.400;2023-05-07T05:09:46;0.98;;;0.82;;
69417;SDS011;56610;48.872;2.400;2023-05-07T05:12:11;1.10;;;0.98;;
69417;SDS011;56610;48.872;2.400;2023-05-07T05:14:37;2.92;;;1.00;;
69417;SDS011;56610;48.872;2.400;2023-05-07T05:17:02;1.77;;;1.00;;
69417;SDS011;56610;48.872;2.400;2023-05-07T05:19:28;2.22;;;0.82;;
69417;SDS011;56610;48.872;2.400;2023-05-07T05:21:53;1.08;;;0.80;;
69417;SDS011;56610;48.872;2.400;2023-05-07T05:24:19;1.02;;;0.70;;
69417;SDS011;56610;48.872;2.400;2023-05-07T05:26:45;1.17;;;0.90;;
69417;SDS011;56610;48.872;2.400;2023-05-07T05:29:10;1.20;;;1.00;;
69417;SDS011;56610;48.872;2.400;2023-05-07T05:31:36;1.33;;;1.00;;
69417;SDS011;56610;48.872;2.400;2023-05-07T05:34:02;2.58;;;1.33;;
69417;SDS011;56610;48.872;2.400;2023-05-07T05:36:28;2.03;;;1.10;;
69417;SDS011;56610;48.872;2.400;2023-05-07T05:38:55;1.10;;;1.00;;
69417;SDS011;56610;48.872;2.400;2023-05-07T05:41:21;1.40;;;1.30;;
69417;SDS011;56610;48.872;2.400;2023-05-07T05:43:48;2.75;;;1.40;;
69417;SDS011;56610;48.872;2.400;2023-05-07T05:46:14;1.00;;;0.90;;
69417;SDS011;56610;48.872;2.400;2023-05-07T05:48:40;1.05;;;0.85;;
69417;SDS011;56610;48.872;2.400;2023-05-07T05:51:05;2.15;;;0.93;;
69417;SDS011;56610;48.872;2.400;2023-05-07T05:53:31;1.20;;;1.10;;
69417;SDS011;56610;48.872;2.400;2023-05-07T05:55:56;1.88;;;1.48;;
69417;SDS011;56610;48.872;2.400;2023-05-07T05:58:22;2.85;;;1.40;;
69417;SDS011;56610;48.872;2.400;2023-05-07T06:00:48;1.40;;;0.90;;
69417;SDS011;56610;48.872;2.400;2023-05-07T06:03:16;1.73;;;1.10;;
69417;SDS011;56610;48.872;2.400;2023-05-07T06:05:42;1.92;;;1.25;;
69417;SDS011;56610;48.872;2.400;2023-05-07T06:08:07;1.42;;;1.20;;
69417;SDS011;56610;48.872;2.400;2023-05-07T06:10:33;2.28;;;1.08;;
69417;SDS011;56610;48.872;2.400;2023-05-07T06:13:00;1.17;;;1.07;;
69417;SDS011;56610;48.872;2.400;2023-05-07T06:15:26;1.30;;;1.00;;
69417;SDS011;56610;48.872;2.400;2023-05-07T06:17:51;2.17;;;1.10;;
69417;SDS011;56610;48.872;2.400;2023-05-07T06:20:17;1.25;;;1.10;;
69417;SDS011;56610;48.872;2.400;2023-05-07T06:22:42;1.20;;;1.10;;
69417;SDS011;56610;48.872;2.400;2023-05-07T06:25:08;1.00;;;1.00;;
69417;SDS011;56610;48.872;2.400;2023-05-07T06:27:34;1.45;;;0.90;;
69417;SDS011;56610;48.872;2.400;2023-05-07T06:29:59;0.90;;;0.80;;
69417;SDS011;56610;48.872;2.400;2023-05-07T06:32:25;2.47;;;1.10;;
69417;SDS011;56610;48.872;2.400;2023-05-07T06:34:51;1.02;;;0.63;;
69417;SDS011;56610;48.872;2.400;2023-05-07T06:37:16;1.35;;;1.10;;
69417;SDS011;56610;48.872;2.400;2023-05-07T06:39:42;1.60;;;1.13;;
69417;SDS011;56610;48.872;2.400;2023-05-07T06:42:07;1.20;;;1.00;;
69417;SDS011;56610;48.872;2.400;2023-05-07T06:44:33;2.65;;;0.80;;
69417;SDS011;56610;48.872;2.400;2023-05-07T06:46:58;1.58;;;1.05;;
69417;SDS011;56610;48.872;2.400;2023-05-07T06:49:24;1.48;;;1.15;;
69417;SDS011;56610;48.872;2.400;2023-05-07T06:51:49;1.08;;;0.80;;
69417;SDS011;56610;48.872;2.400;2023-05-07T06:54:15;1.67;;;0.80;;
69417;SDS011;56610;48.872;2.400;2023-05-07T06:56:41;0.68;;;0.68;;
69417;SDS011;56610;48.872;2.400;2023-05-07T06:59:06;0.68;;;0.68;;
69417;SDS011;56610;48.872;2.400;2023-05-07T07:01:32;1.27;;;0.70;;
69417;SDS011;56610;48.872;2.400;2023-05-07T07:03:58;1.10;;;0.68;;
69417;SDS011;56610;48.872;2.400;2023-05-07T07:06:23;0.57;;;0.50;;
69417;SDS011;56610;48.872;2.400;2023-05-07T07:08:49;0.75;;;0.65;;
69417;SDS011;56610;48.872;2.400;2023-05-07T07:11:15;1.38;;;0.80;;
69417;SDS011;56610;48.872;2.400;2023-05-07T07:13:40;1.00;;;0.95;;
69417;SDS011;56610;48.872;2.400;2023-05-07T07:16:07;0.90;;;0.80;;
69417;SDS011;56610;48.872;2.400;2023-05-07T07:18:33;1.20;;;0.90;;
69417;SDS011;56610;48.872;2.400;2023-05-07T07:20:59;1.15;;;0.90;;
69417;SDS011;56610;48.872;2.400;2023-05-07T07:23:25;1.33;;;1.00;;
69417;SDS011;56610;48.872;2.400;2023-05-07T07:25:50;1.20;;;0.73;;
69417;SDS011;56610;48.872;2.400;2023-05-07T07:28:16;1.00;;;0.90;;
69417;SDS011;56610;48.872;2.400;2023-05-07T07:30:42;1.10;;;1.00;;
69417;SDS011;56610;48.872;2.400;2023-05-07T07:33:08;2.22;;;1.10;;
69417;SDS011;56610;48.872;2.400;2023-05-07T07:35:33;1.15;;;0.98;;
69417;SDS011;56610;48.872;2.400;2023-05-07T07:38:00;1.30;;;1.00;;
69417;SDS011;56610;48.872;2.400;2023-05-07T07:40:26;1.97;;;0.87;;
69417;SDS011;56610;48.872;2.400;2023-05-07T07:42:52;1.20;;;1.10;;
69417;SDS011;56610;48.872;2.400;2023-05-07T07:45:18;2.08;;;1.48;;
69417;SDS011;56610;48.872;2.400;2023-05-07T07:47:44;1.42;;;1.30;;
69417;SDS011;56610;48.872;2.400;2023-05-07T07:50:10;1.85;;;1.70;;
69417;SDS011;56610;48.872;2.400;2023-05-07T07:52:36;1.63;;;1.40;;
69417;SDS011;56610;48.872;2.400;2023-05-07T07:55:01;1.85;;;1.60;;
69417;SDS011;56610;48.872;2.400;2023-05-07T07:57:28;2.03;;;1.83;;
69417;SDS011;56610;48.872;2.400;2023-05-07T07:59:53;2.72;;;1.67;;
69417;SDS011;56610;48.872;2.400;2023-05-07T08:02:19;1.95;;;1.30;;
69417;SDS011;56610;48.872;2.400;2023-05-07T08:04:44;2.67;;;2.03;;
69417;SDS011;56610;48.872;2.400;2023-05-07T08:07:10;1.50;;;1.40;;
69417;SDS011;56610;48.872;2.400;2023-05-07T08:09:39;1.90;;;1.25;;
69417;SDS011;56610;48.872;2.400;2023-05-07T08:12:06;1.20;;;1.13;;
69417;SDS011;56610;48.872;2.400;2023-05-07T08:14:32;1.33;;;1.13;;
69417;SDS011;56610;48.872;2.400;2023-05-07T08:16:58;1.20;;;1.10;;
69417;SDS011;56610;48.872;2.400;2023-05-07T08:19:24;1.35;;;1.10;;
69417;SDS011;56610;48.872;2.400;2023-05-07T08:21:49;2.20;;;1.00;;
69417;SDS011;56610;48.872;2.400;2023-05-07T08:24:15;1.10;;;0.80;;
69417;SDS011;56610;48.872;2.400;2023-05-07T08:26:41;2.05;;;0.82;;
69417;SDS011;56610;48.872;2.400;2023-05-07T08:29:07;1.33;;;1.13;;
69417;SDS011;56610;48.872;2.400;2023-05-07T08:31:33;1.70;;;1.10;;
69417;SDS011;56610;48.872;2.400;2023-05-07T08:33:58;2.60;;;1.60;;
69417;SDS011;56610;48.872;2.400;2023-05-07T08:36:24;2.15;;;1.33;;
69417;SDS011;56610;48.872;2.400;2023-05-07T08:38:50;2.40;;;1.23;;
69417;SDS011;56610;48.872;2.400;2023-05-07T08:41:16;1.75;;;1.10;;
69417;SDS011;56610;48.872;2.400;2023-05-07T08:43:42;1.30;;;1.20;;
69417;SDS011;56610;48.872;2.400;2023-05-07T08:46:12;1.48;;;1.38;;
69417;SDS011;56610;48.872;2.400;2023-05-07T08:48:44;1.67;;;1.50;;
69417;SDS011;56610;48.872;2.400;2023-05-07T08:51:12;1.90;;;1.65;;
69417;SDS011;56610;48.872;2.400;2023-05-07T08:53:40;2.63;;;1.40;;
69417;SDS011;56610;48.872;2.400;2023-05-07T08:56:07;3.10;;;1.67;;
69417;SDS011;56610;48.872;2.400;2023-05-07T08:58:33;2.10;;;1.58;;
69417;SDS011;56610;48.872;2.400;2023-05-07T09:01:00;2.08;;;1.88;;
69417;SDS011;56610;48.872;2.400;2023-05-07T09:03:31;2.30;;;1.67;;
69417;SDS011;56610;48.872;2.400;2023-05-07T09:05:57;1.98;;;1.38;;
69417;SDS011;56610;48.872;2.400;2023-05-07T09:08:26;1.38;;;1.10;;
69417;SDS011;56610;48.872;2.400;2023-05-07T09:10:52;1.40;;;1.20;;
69417;SDS011;56610;48.872;2.400;2023-05-07T09:13:18;1.88;;;1.13;;
69417;SDS011;56610;48.872;2.400;2023-05-07T09:15:46;1.77;;;1.15;;
69417;SDS011;56610;48.872;2.400;2023-05-07T09:18:12;1.50;;;1.40;;
69417;SDS011;56610;48.872;2.400;2023-05-07T09:20:39;1.70;;;1.20;;
69417;SDS011;56610;48.872;2.400;2023-05-07T09:25:32;1.98;;;1.20;;
69417;SDS011;56610;48.872;2.400;2023-05-07T09:28:00;1.55;;;1.10;;
69417;SDS011;56610;48.872;2.400;2023-05-07T09:30:29;1.80;;;1.15;;
69417;SDS011;56610;48.872;2.400;2023-05-07T09:32:56;0.90;;;0.90;;
69417;SDS011;56610;48.872;2.400;2023-05-07T09:35:25;1.77;;;1.02;;
69417;SDS011;56610;48.872;2.400;2023-05-07T09:37:55;1.27;;;1.10;;
69417;SDS011;56610;48.872;2.400;2023-05-07T09:40:22;1.85;;;0.90;;
69417;SDS011;56610;48.872;2.400;2023-05-07T09:45:36;0.95;;;0.95;;
69417;SDS011;56610;48.872;2.400;2023-05-07T09:48:04;1.60;;;1.10;;
69417;SDS011;56610;48.872;2.400;2023-05-07T09:50:40;0.95;;;0.93;;
69417;SDS011;56610;48.872;2.400;2023-05-07T09:53:14;5.63;;;1.80;;
69417;SDS011;56610;48.872;2.400;2023-05-07T09:55:40;2.28;;;1.67;;
69417;SDS011;56610;48.872;2.400;2023-05-07T09:58:06;1.70;;;1.50;;
69417;SDS011;56610;48.872;2.400;2023-05-07T10:00:33;2.28;;;1.50;;
69417;SDS011;56610;48.872;2.400;2023-05-07T10:03:00;2.65;;;1.33;;
69417;SDS011;56610;48.872;2.400;2023-05-07T10:05:27;1.23;;;1.00;;
69417;SDS011;56610;48.872;2.400;2023-05-07T10:07:54;2.28;;;1.58;;
69417;SDS011;56610;48.872;2.400;2023-05-07T10:10:21;2.37;;;1.63;;
69417;SDS011;56610;48.872;2.400;2023-05-07T10:12:48;2.85;;;1.70;;
69417;SDS011;56610;48.872;2.400;2023-05-07T10:15:15;2.20;;;1.70;;
69417;SDS011;56610;48.872;2.400;2023-05-07T10:17:43;2.15;;;1.73;;
69417;SDS011;56610;48.872;2.400;2023-05-07T10:20:10;3.22;;;2.10;;
69417;SDS011;56610;48.872;2.400;2023-05-07T10:22:41;2.70;;;1.80;;
69417;SDS011;56610;48.872;2.400;2023-05-07T10:25:29;2.78;;;1.70;;
69417;SDS011;56610;48.872;2.400;2023-05-07T10:27:55;1.98;;;1.73;;
69417;SDS011;56610;48.872;2.400;2023-05-07T10:33:13;2.10;;;1.90;;
69417;SDS011;56610;48.872;2.400;2023-05-07T10:35:42;2.20;;;2.00;;
69417;SDS011;56610;48.872;2.400;2023-05-07T10:38:09;2.80;;;2.42;;
69417;SDS011;56610;48.872;2.400;2023-05-07T10:40:35;2.22;;;1.80;;
69417;SDS011;56610;48.872;2.400;2023-05-07T10:43:02;2.10;;;1.90;;
69417;SDS011;56610;48.872;2.400;2023-05-07T10:45:32;1.92;;;1.70;;
69417;SDS011;56610;48.872;2.400;2023-05-07T10:48:11;1.60;;;1.50;;
69417;SDS011;56610;48.872;2.400;2023-05-07T10:50:41;2.53;;;2.00;;
69417;SDS011;56610;48.872;2.400;2023-05-07T10:55:43;2.05;;;1.80;;
69417;SDS011;56610;48.872;2.400;2023-05-07T11:00:48;1.80;;;1.70;;
69417;SDS011;56610;48.872;2.400;2023-05-07T11:03:14;2.40;;;1.70;;
69417;SDS011;56610;48.872;2.400;2023-05-07T11:05:40;1.95;;;1.60;;
69417;SDS011;56610;48.872;2.400;2023-05-07T11:08:07;1.73;;;1.63;;
69417;SDS011;56610;48.872;2.400;2023-05-07T11:13:18;2.28;;;1.60;;
69417;SDS011;56610;48.872;2.400;2023-05-07T11:16:04;2.80;;;2.00;;
69417;SDS011;56610;48.872;2.400;2023-05-07T11:18:47;2.38;;;1.70;;
69417;SDS011;56610;48.872;2.400;2023-05-07T11:21:34;2.63;;;2.13;;
69417;SDS011;56610;48.872;2.400;2023-05-07T11:24:04;2.00;;;1.80;;
69417;SDS011;56610;48.872;2.400;2023-05-07T11:26:31;2.05;;;1.83;;
69417;SDS011;56610;48.872;2.400;2023-05-07T11:29:10;1.73;;;1.63;;
69417;SDS011;56610;48.872;2.400;2023-05-07T11:31:37;2.50;;;2.30;;
69417;SDS011;56610;48.872;2.400;2023-05-07T11:34:03;2.00;;;1.88;;
69417;SDS011;56610;48.872;2.400;2023-05-07T11:36:30;2.00;;;1.80;;
69417;SDS011;56610;48.872;2.400;2023-05-07T11:41:22;1.85;;;1.63;;
69417;SDS011;56610;48.872;2.400;2023-05-07T11:43:58;1.90;;;1.73;;
69417;SDS011;56610;48.872;2.400;2023-05-07T11:46:24;2.10;;;1.90;;
69417;SDS011;56610;48.872;2.400;2023-05-07T11:48:51;1.95;;;1.60;;
69417;SDS011;56610;48.872;2.400;2023-05-07T11:51:24;2.22;;;1.80;;
69417;SDS011;56610;48.872;2.400;2023-05-07T11:53:51;2.50;;;1.70;;
69417;SDS011;56610;48.872;2.400;2023-05-07T11:56:17;2.63;;;1.73;;
69417;SDS011;56610;48.872;2.400;2023-05-07T11:58:44;1.60;;;1.50;;
69417;SDS011;56610;48.872;2.400;2023-05-07T12:01:11;3.55;;;2.20;;
69417;SDS011;56610;48.872;2.400;2023-05-07T12:03:41;1.80;;;1.70;;
69417;SDS011;56610;48.872;2.400;2023-05-07T12:06:09;2.25;;;1.50;;
69417;SDS011;56610;48.872;2.400;2023-05-07T12:08:37;1.90;;;1.75;;
69417;SDS011;56610;48.872;2.400;2023-05-07T12:11:06;1.95;;;1.75;;
69417;SDS011;56610;48.872;2.400;2023-05-07T12:13:33;2.63;;;1.90;;
69417;SDS011;56610;48.872;2.400;2023-05-07T12:15:59;2.28;;;1.80;;
69417;SDS011;56610;48.872;2.400;2023-05-07T12:18:25;1.63;;;1.30;;
69417;SDS011;56610;48.872;2.400;2023-05-07T12:20:52;1.98;;;1.80;;
69417;SDS011;56610;48.872;2.400;2023-05-07T12:23:18;2.15;;;1.80;;
69417;SDS011;56610;48.872;2.400;2023-05-07T12:25:44;2.05;;;1.90;;
69417;SDS011;56610;48.872;2.400;2023-05-07T12:28:15;2.22;;;1.60;;
69417;SDS011;56610;48.872;2.400;2023-05-07T12:30:42;2.25;;;2.03;;
69417;SDS011;56610;48.872;2.400;2023-05-07T12:33:08;1.73;;;1.30;;
69417;SDS011;56610;48.872;2.400;2023-05-07T12:35:36;2.58;;;1.50;;
69417;SDS011;56610;48.872;2.400;2023-05-07T12:38:07;2.08;;;1.10;;
69417;SDS011;56610;48.872;2.400;2023-05-07T12:45:42;1.10;;;1.00;;
69417;SDS011;56610;48.872;2.400;2023-05-07T12:48:09;1.30;;;1.20;;
69417;SDS011;56610;48.872;2.400;2023-05-07T12:50:35;1.70;;;1.60;;
69417;SDS011;56610;48.872;2.400;2023-05-07T12:53:03;1.63;;;1.40;;
69417;SDS011;56610;48.872;2.400;2023-05-07T12:55:39;3.35;;;2.20;;
69417;SDS011;56610;48.872;2.400;2023-05-07T12:58:16;1.88;;;1.70;;
69417;SDS011;56610;48.872;2.400;2023-05-07T13:00:43;1.38;;;1.13;;
69417;SDS011;56610;48.872;2.400;2023-05-07T13:03:09;1.98;;;1.77;;
69417;SDS011;56610;48.872;2.400;2023-05-07T13:05:35;2.40;;;2.20;;
69417;SDS011;56610;48.872;2.400;2023-05-07T13:08:01;2.50;;;2.30;;
69417;SDS011;56610;48.872;2.400;2023-05-07T13:10:27;2.65;;;2.45;;
69417;SDS011;56610;48.872;2.400;2023-05-07T13:12:53;2.40;;;2.20;;
69417;SDS011;56610;48.872;2.400;2023-05-07T13:15:19;2.83;;;2.63;;
69417;SDS011;56610;48.872;2.400;2023-05-07T13:17:44;2.83;;;2.55;;
69417;SDS011;56610;48.872;2.400;2023-05-07T13:20:10;2.75;;;2.50;;
69417;SDS011;56610;48.872;2.400;2023-05-07T13:22:40;2.63;;;2.13;;
69417;SDS011;56610;48.872;2.400;2023-05-07T13:25:06;2.03;;;1.80;;
69417;SDS011;56610;48.872;2.400;2023-05-07T13:27:32;2.55;;;2.17;;
69417;SDS011;56610;48.872;2.400;2023-05-07T13:30:00;2.78;;;2.33;;
69417;SDS011;56610;48.872;2.400;2023-05-07T13:32:26;2.28;;;2.00;;
69417;SDS011;56610;48.872;2.400;2023-05-07T13:34:51;3.15;;;2.40;;
69417;SDS011;56610;48.872;2.400;2023-05-07T13:37:17;3.03;;;2.40;;
69417;SDS011;56610;48.872;2.400;2023-05-07T13:39:42;2.83;;;2.58;;
69417;SDS011;56610;48.872;2.400;2023-05-07T13:42:09;3.40;;;3.10;;
69417;SDS011;56610;48.872;2.400;2023-05-07T13:44:35;3.10;;;2.80;;
69417;SDS011;56610;48.872;2.400;2023-05-07T13:47:00;4.80;;;4.40;;
69417;SDS011;56610;48.872;2.400;2023-05-07T13:49:26;4.10;;;3.70;;
69417;SDS011;56610;48.872;2.400;2023-05-07T13:51:52;4.05;;;3.65;;
69417;SDS011;56610;48.872;2.400;2023-05-07T13:54:18;4.22;;;3.72;;
69417;SDS011;56610;48.872;2.400;2023-05-07T13:56:43;3.35;;;3.00;;
69417;SDS011;56610;48.872;2.400;2023-05-07T13:59:09;6.05;;;3.80;;
69417;SDS011;56610;48.872;2.400;2023-05-07T14:01:34;7.07;;;2.70;;
69417;SDS011;56610;48.872;2.400;2023-05-07T14:04:00;2.45;;;2.25;;
69417;SDS011;56610;48.872;2.400;2023-05-07T14:06:25;2.80;;;2.50;;
69417;SDS011;56610;48.872;2.400;2023-05-07T14:08:51;3.05;;;2.75;;
69417;SDS011;56610;48.872;2.400;2023-05-07T14:11:17;2.30;;;2.10;;
69417;SDS011;56610;48.872;2.400;2023-05-07T14:13:42;3.47;;;2.47;;
69417;SDS011;56610;48.872;2.400;2023-05-07T14:16:08;2.40;;;2.17;;
69417;SDS011;56610;48.872;2.400;2023-05-07T14:18:34;2.50;;;2.28;;
69417;SDS011;56610;48.872;2.400;2023-05-07T14:21:01;2.45;;;2.25;;
69417;SDS011;56610;48.872;2.400;2023-05-07T14:23:27;3.30;;;2.20;;
69417;SDS011;56610;48.872;2.400;2023-05-07T14:25:53;2.75;;;2.38;;
69417;SDS011;56610;48.872;2.400;2023-05-07T14:28:19;3.22;;;2.50;;
69417;SDS011;56610;48.872;2.400;2023-05-07T14:30:45;3.00;;;2.45;;
69417;SDS011;56610;48.872;2.400;2023-05-07T14:33:10;2.92;;;2.10;;
69417;SDS011;56610;48.872;2.400;2023-05-07T14:35:36;2.97;;;2.50;;
69417;SDS011;56610;48.872;2.400;2023-05-07T14:38:01;2.60;;;2.40;;
69417;SDS011;56610;48.872;2.400;2023-05-07T14:40:27;3.55;;;2.47;;
69417;SDS011;56610;48.872;2.400;2023-05-07T14:42:53;4.95;;;2.38;;
69417;SDS011;56610;48.872;2.400;2023-05-07T14:45:18;5.07;;;2.90;;
69417;SDS011;56610;48.872;2.400;2023-05-07T14:47:45;4.23;;;3.13;;
69417;SDS011;56610;48.872;2.400;2023-05-07T14:50:11;3.95;;;3.03;;
69417;SDS011;56610;48.872;2.400;2023-05-07T14:52:36;5.00;;;2.60;;
69417;SDS011;56610;48.872;2.400;2023-05-07T14:55:02;3.53;;;3.03;;
69417;SDS011;56610;48.872;2.400;2023-05-07T14:57:28;3.25;;;2.45;;
69417;SDS011;56610;48.872;2.400;2023-05-07T14:59:53;4.40;;;3.15;;
69417;SDS011;56610;48.872;2.400;2023-05-07T15:02:19;4.07;;;3.40;;
69417;SDS011;56610;48.872;2.400;2023-05-07T15:04:45;2.92;;;2.72;;
69417;SDS011;56610;48.872;2.400;2023-05-07T15:07:11;3.75;;;2.90;;
69417;SDS011;56610;48.872;2.400;2023-05-07T15:09:43;2.80;;;2.60;;
69417;SDS011;56610;48.872;2.400;2023-05-07T15:12:09;4.38;;;3.53;;